createdAt,value
2022-08-17T00:02:09.848Z,94.60
2022-08-17T00:04:52.288Z,94.50
2022-08-17T00:07:18.988Z,94.50
2022-08-17T00:09:45.740Z,94.70
2022-08-17T00:12:43.683Z,94.60
2022-08-17T00:15:00.001Z,94.60
2022-08-17T00:17:26.906Z,94.70
2022-08-17T00:19:53.597Z,94.60
2022-08-17T00:22:31.501Z,94.70
2022-08-17T00:25:03.463Z,94.70
2022-08-17T00:27:30.162Z,94.80
2022-08-17T00:29:56.862Z,94.80
2022-08-17T00:33:11.652Z,94.70
2022-08-17T00:35:12.543Z,94.80
2022-08-17T00:37:40.181Z,95.00
2022-08-17T00:40:09.066Z,95.00
2022-08-17T00:42:36.548Z,94.90
2022-08-17T00:45:05.940Z,94.90
2022-08-17T00:47:33.168Z,95.10
2022-08-17T00:50:00.227Z,95.20
2022-08-17T00:52:35.288Z,95.20
2022-08-17T00:55:04.247Z,95.60
2022-08-17T00:57:35.252Z,95.20
2022-08-17T01:00:12.610Z,95.10
2022-08-17T01:02:43.180Z,95.10
2022-08-17T01:05:23.908Z,95.10
2022-08-17T01:07:52.876Z,95.10
2022-08-17T01:10:58.766Z,95.20
2022-08-17T01:13:24.427Z,95.20
2022-08-17T01:16:01.852Z,95.30
2022-08-17T01:18:29.213Z,95.10
2022-08-17T01:20:58.550Z,95.30
2022-08-17T01:23:28.796Z,95.30
2022-08-17T01:25:59.078Z,95.20
2022-08-17T01:28:53.095Z,95.20
2022-08-17T01:31:17.822Z,95.30
2022-08-17T01:33:44.590Z,95.30
2022-08-17T01:36:11.343Z,95.30
2022-08-17T01:38:38.849Z,95.40
2022-08-17T01:41:11.749Z,95.40
2022-08-17T01:44:02.089Z,95.50
2022-08-17T01:46:33.411Z,95.60
2022-08-17T01:49:01.136Z,95.50
2022-08-17T01:51:32.726Z,95.50
2022-08-17T01:54:05.253Z,95.60
2022-08-17T01:56:33.965Z,95.70
2022-08-17T01:59:00.827Z,95.80
2022-08-17T02:01:30.006Z,95.80
2022-08-17T02:04:00.426Z,95.90
2022-08-17T02:06:29.829Z,95.90
2022-08-17T02:09:02.954Z,95.90
2022-08-17T02:11:33.316Z,95.90
2022-08-17T02:14:02.817Z,95.90
2022-08-17T02:16:37.575Z,96.00
2022-08-17T02:19:07.921Z,96.10
2022-08-17T02:21:36.389Z,96.20
2022-08-17T02:24:04.464Z,96.20
2022-08-17T02:26:31.301Z,96.20
2022-08-17T02:28:58.050Z,96.30
2022-08-17T02:31:24.810Z,96.30
2022-08-17T02:34:00.316Z,96.30
2022-08-17T02:36:32.191Z,96.20
2022-08-17T02:39:04.618Z,96.10
2022-08-17T02:41:31.502Z,96.20
2022-08-17T02:43:58.603Z,96.30
2022-08-17T02:46:25.938Z,96.30
2022-08-17T02:48:52.671Z,96.60
2022-08-17T02:51:19.480Z,96.60
2022-08-17T02:53:46.755Z,96.60
2022-08-17T02:56:13.917Z,96.50
2022-08-17T02:58:40.755Z,96.70
2022-08-17T03:01:09.735Z,96.80
2022-08-17T03:03:37.505Z,96.70
2022-08-17T03:06:05.922Z,96.50
2022-08-17T03:08:32.653Z,96.50
2022-08-17T03:10:59.686Z,96.60
2022-08-17T03:13:27.534Z,96.80
2022-08-17T03:15:54.384Z,96.90
2022-08-17T03:18:25.122Z,97.00
2022-08-17T03:20:58.377Z,97.10
2022-08-17T03:23:27.257Z,97.30
2022-08-17T03:25:54.994Z,97.00
2022-08-17T03:28:23.394Z,96.90
2022-08-17T03:30:51.233Z,97.00
2022-08-17T03:33:19.131Z,97.10
2022-08-17T03:35:46.313Z,97.10
2022-08-17T03:38:15.175Z,97.10
2022-08-17T03:40:56.971Z,97.20
2022-08-17T03:43:26.921Z,97.20
2022-08-17T03:46:28.143Z,97.30
2022-08-17T03:49:17.850Z,97.40
2022-08-17T03:52:03.053Z,97.20
2022-08-17T03:54:48.206Z,97.40
2022-08-17T03:57:14.933Z,97.40
2022-08-17T03:59:41.845Z,97.60
2022-08-17T04:02:25.576Z,97.60
2022-08-17T04:04:52.777Z,97.70
2022-08-17T04:07:21.046Z,97.70
2022-08-17T04:09:48.437Z,97.80
2022-08-17T04:12:17.861Z,97.80
2022-08-17T04:14:53.562Z,97.80
2022-08-17T04:17:27.236Z,97.80
2022-08-17T04:19:55.606Z,98.00
2022-08-17T04:22:32.737Z,98.10
2022-08-17T04:25:18.045Z,98.10
2022-08-17T04:27:44.859Z,98.10
2022-08-17T04:30:12.451Z,98.00
2022-08-17T04:33:07.346Z,98.00
2022-08-17T04:35:46.113Z,98.00
2022-08-17T04:38:15.748Z,98.00
2022-08-17T04:41:02.058Z,98.10
2022-08-17T04:43:30.967Z,98.10
2022-08-17T04:46:04.650Z,98.20
2022-08-17T04:48:37.767Z,98.20
2022-08-17T04:51:09.570Z,98.20
2022-08-17T04:53:36.917Z,98.20
2022-08-17T04:56:04.134Z,98.20
2022-08-17T04:58:31.071Z,98.10
2022-08-17T05:00:57.999Z,98.20
2022-08-17T05:03:24.891Z,98.10
2022-08-17T05:05:51.703Z,98.00
2022-08-17T05:08:20.274Z,98.00
2022-08-17T05:10:47.638Z,98.00
2022-08-17T05:13:18.853Z,97.90
2022-08-17T05:15:47.884Z,97.80
2022-08-17T05:18:16.073Z,97.80
2022-08-17T05:20:43.655Z,97.70
2022-08-17T05:23:13.660Z,97.60
2022-08-17T05:25:47.338Z,97.50
2022-08-17T05:28:52.431Z,97.80
2022-08-17T05:35:59.852Z,97.30
2022-08-17T05:45:54.916Z,97.20
2022-08-17T05:49:20.868Z,97.00
2022-08-17T05:52:08.861Z,96.80
2022-08-17T05:59:28.009Z,96.70
2022-08-17T06:03:12.534Z,96.40
2022-08-17T06:06:09.233Z,96.30
2022-08-17T06:08:42.493Z,96.30
2022-08-17T06:11:23.928Z,96.30
2022-08-17T06:14:32.883Z,96.30
2022-08-17T06:17:08.252Z,96.30
2022-08-17T06:19:54.592Z,96.60
2022-08-17T06:22:26.324Z,96.10
2022-08-17T06:25:01.240Z,96.00
2022-08-17T06:27:46.814Z,95.80
2022-08-17T06:30:27.627Z,95.70
2022-08-17T06:32:59.605Z,95.50
2022-08-17T06:35:37.813Z,95.50
2022-08-17T06:38:37.916Z,95.10
2022-08-17T06:41:45.587Z,95.10
2022-08-17T06:44:49.923Z,95.20
2022-08-17T06:47:28.756Z,95.10
2022-08-17T06:50:07.678Z,94.90
2022-08-17T06:52:46.860Z,94.50
2022-08-17T06:55:38.145Z,94.40
2022-08-17T06:58:15.872Z,94.00
2022-08-17T07:00:47.272Z,93.70
2022-08-17T07:03:30.035Z,93.50
2022-08-17T07:06:20.801Z,93.60
2022-08-17T07:08:57.604Z,93.60
2022-08-17T07:11:34.069Z,93.40
2022-08-17T07:14:25.267Z,93.40
2022-08-17T07:16:55.370Z,93.60
2022-08-17T07:19:26.003Z,93.50
2022-08-17T07:22:15.797Z,93.50
2022-08-17T07:25:00.759Z,93.60
2022-08-17T07:27:35.661Z,93.50
2022-08-17T07:30:10.337Z,93.40
2022-08-17T07:32:47.577Z,93.10
2022-08-17T07:35:16.565Z,93.10
2022-08-17T07:37:53.166Z,93.30
2022-08-17T07:40:36.052Z,93.30
2022-08-17T07:43:05.133Z,93.20
2022-08-17T07:49:11.031Z,93.00
2022-08-17T07:51:48.602Z,92.60
2022-08-17T07:54:15.798Z,92.80
2022-08-17T07:56:56.575Z,92.50
2022-08-17T08:00:04.102Z,92.20
2022-08-17T08:02:54.665Z,92.40
2022-08-17T08:05:49.493Z,92.70
2022-08-17T08:08:32.434Z,92.80
2022-08-17T08:11:03.689Z,92.50
2022-08-17T08:13:35.369Z,92.50
2022-08-17T08:16:27.693Z,92.30
2022-08-17T08:18:59.745Z,92.20
2022-08-17T08:21:56.731Z,92.20
2022-08-17T08:25:01.243Z,92.20
2022-08-17T08:27:40.225Z,91.90
2022-08-17T08:30:14.483Z,91.70
2022-08-17T08:33:01.578Z,91.60
2022-08-17T08:35:55.191Z,91.10
2022-08-17T08:38:47.414Z,91.30
2022-08-17T08:41:26.366Z,91.60
2022-08-17T08:44:06.517Z,91.20
2022-08-17T08:46:59.963Z,91.00
2022-08-17T08:50:08.471Z,90.40
2022-08-17T08:53:03.105Z,90.60
2022-08-17T08:55:48.518Z,90.80
2022-08-17T08:58:36.294Z,91.00
2022-08-17T09:01:32.415Z,91.30
2022-08-17T09:04:24.718Z,91.40
2022-08-17T09:07:01.648Z,91.60
2022-08-17T09:09:59.374Z,90.80
2022-08-17T09:13:13.816Z,90.70
2022-08-17T09:15:48.024Z,91.00
2022-08-17T09:19:00.223Z,92.10
2022-08-17T09:21:55.876Z,93.20
2022-08-17T09:24:36.193Z,93.10
2022-08-17T09:27:25.898Z,93.00
2022-08-17T09:30:04.054Z,92.70
2022-08-17T09:32:49.067Z,93.10
2022-08-17T09:35:59.678Z,93.50
2022-08-17T09:38:36.901Z,93.80
2022-08-17T09:42:01.080Z,93.80
2022-08-17T09:44:37.444Z,94.30
2022-08-17T09:47:30.662Z,94.40
2022-08-17T09:51:03.314Z,94.60
2022-08-17T09:53:15.486Z,94.80
2022-08-17T09:56:33.927Z,95.10
2022-08-17T09:59:25.007Z,94.60
2022-08-17T10:02:21.010Z,94.60
2022-08-17T10:05:18.802Z,95.50
2022-08-17T10:07:57.589Z,95.90
2022-08-17T10:10:52.502Z,96.20
2022-08-17T10:13:53.762Z,96.60
2022-08-17T10:20:27.120Z,96.50
2022-08-17T11:00:08.321Z,99.00
2022-08-17T11:11:50.324Z,98.30
2022-08-17T11:14:30.564Z,97.50
2022-08-17T11:21:49.131Z,98.20
2022-08-17T11:24:31.505Z,98.80
2022-08-17T11:27:15.285Z,99.20
2022-08-17T11:30:05.568Z,99.40
2022-08-17T11:36:38.923Z,99.90
2022-08-17T11:39:28.568Z,99.90
2022-08-17T11:42:42.564Z,99.90
2022-08-17T11:45:46.651Z,99.90
2022-08-17T11:48:58.148Z,99.90
2022-08-17T11:52:01.182Z,99.90
2022-08-17T11:54:33.450Z,99.90
2022-08-17T11:57:21.525Z,99.90
2022-08-17T11:59:48.412Z,99.90
2022-08-17T12:02:36.175Z,99.90
2022-08-17T12:05:18.001Z,99.90
2022-08-17T12:07:52.403Z,99.90
2022-08-17T12:10:31.995Z,99.90
2022-08-17T12:13:02.321Z,99.90
2022-08-17T12:15:36.396Z,99.90
2022-08-17T12:18:04.933Z,99.90
2022-08-17T12:20:56.934Z,99.90
2022-08-17T12:23:35.426Z,99.90
2022-08-17T12:26:20.521Z,99.90
2022-08-17T12:28:50.103Z,99.90
2022-08-17T12:31:36.615Z,99.90
2022-08-17T12:34:06.025Z,99.90
2022-08-17T12:36:38.595Z,99.90
2022-08-17T12:42:15.658Z,99.90
2022-08-17T12:54:50.199Z,96.30
2022-08-17T12:57:36.377Z,94.20
2022-08-17T13:01:14.298Z,93.00
2022-08-17T13:08:00.393Z,90.20
2022-08-17T13:10:59.944Z,91.00
2022-08-17T13:18:04.744Z,92.10
2022-08-17T13:21:07.961Z,92.60
2022-08-17T13:24:07.638Z,90.80
2022-08-17T13:27:44.407Z,91.90
2022-08-17T13:30:12.576Z,89.70
2022-08-17T13:32:50.016Z,87.10
2022-08-17T13:36:28.933Z,84.40
2022-08-17T13:41:53.599Z,83.00
2022-08-17T13:44:53.296Z,82.80
2022-08-17T13:47:30.698Z,81.60
2022-08-17T13:49:58.832Z,81.20
2022-08-17T13:58:19.149Z,83.50
2022-08-17T14:05:00.603Z,79.10
2022-08-17T14:15:55.224Z,82.10
2022-08-17T14:21:27.248Z,79.50
2022-08-17T14:24:29.130Z,79.50
2022-08-17T14:28:08.148Z,78.60
2022-08-17T14:30:37.498Z,78.10
2022-08-17T14:33:39.348Z,76.80
2022-08-17T14:36:18.567Z,75.40
2022-08-17T14:43:17.362Z,75.40
2022-08-17T14:46:18.250Z,76.40
2022-08-17T14:49:04.628Z,76.40
2022-08-17T14:51:43.573Z,75.90
2022-08-17T14:58:45.802Z,75.70
2022-08-17T15:01:24.694Z,77.00
2022-08-17T15:08:28.113Z,76.60
2022-08-17T15:12:13.544Z,75.40
2022-08-17T15:15:10.469Z,75.40
2022-08-17T15:18:16.009Z,75.60
2022-08-17T15:20:44.526Z,75.80
2022-08-17T15:23:15.815Z,76.40
2022-08-17T15:25:43.774Z,75.10
2022-08-17T15:28:13.147Z,74.70
2022-08-17T15:30:44.821Z,75.50
2022-08-17T15:33:16.758Z,74.20
2022-08-17T15:35:43.807Z,74.60
2022-08-17T15:38:13.012Z,74.10
2022-08-17T15:40:44.386Z,73.40
2022-08-17T15:43:17.672Z,72.00
2022-08-17T15:45:58.661Z,72.40
2022-08-17T15:48:44.718Z,72.40
2022-08-17T15:51:24.052Z,72.20
2022-08-17T15:53:56.822Z,72.10
2022-08-17T15:56:25.878Z,72.20
2022-08-17T15:58:54.773Z,72.00
2022-08-17T16:02:22.363Z,72.30
2022-08-17T16:04:30.184Z,71.70
2022-08-17T16:07:06.966Z,72.30
2022-08-17T16:09:33.999Z,73.00
2022-08-17T16:12:12.923Z,73.70
2022-08-17T16:14:39.952Z,74.10
2022-08-17T16:17:38.918Z,74.10
2022-08-17T16:19:55.690Z,75.00
2022-08-17T16:22:44.082Z,75.90
2022-08-17T16:25:23.407Z,76.50
2022-08-17T16:28:10.745Z,77.40
2022-08-17T16:30:38.301Z,77.70
2022-08-17T16:33:05.803Z,77.70
2022-08-17T16:35:32.876Z,77.60
2022-08-17T16:38:09.638Z,77.90
2022-08-17T16:40:38.168Z,77.40
2022-08-17T16:43:10.604Z,77.20
2022-08-17T16:45:40.678Z,77.30
2022-08-17T16:48:09.693Z,77.60
2022-08-17T16:50:40.436Z,78.10
2022-08-17T16:53:10.880Z,78.30
2022-08-17T16:55:38.797Z,78.40
2022-08-17T16:58:06.927Z,78.90
2022-08-17T17:00:34.940Z,79.30
2022-08-17T17:03:19.754Z,79.50
2022-08-17T17:06:08.130Z,79.70
2022-08-17T17:08:35.112Z,80.20
2022-08-17T17:11:24.871Z,80.60
2022-08-17T17:14:02.190Z,81.00
2022-08-17T17:16:29.217Z,81.10
2022-08-17T17:19:14.873Z,81.60
2022-08-17T17:21:52.953Z,82.00
2022-08-17T17:24:32.163Z,82.10
2022-08-17T17:27:08.270Z,82.50
2022-08-17T17:29:57.681Z,83.00
2022-08-17T17:32:50.671Z,83.10
2022-08-17T17:35:32.354Z,83.30
2022-08-17T17:58:14.181Z,84.60
2022-08-17T18:05:37.303Z,85.30
2022-08-17T18:19:50.394Z,86.80
2022-08-17T18:23:03.854Z,89.10
2022-08-17T18:26:08.912Z,89.60
2022-08-17T18:29:14.330Z,90.00
2022-08-17T18:31:47.407Z,90.30
2022-08-17T18:34:47.218Z,90.60
2022-08-17T18:37:53.933Z,90.80
2022-08-17T18:52:12.315Z,91.50
2022-08-17T19:10:47.417Z,92.50
2022-08-17T19:13:40.716Z,92.50
2022-08-17T19:16:27.321Z,92.50
2022-08-17T19:19:14.033Z,92.40
2022-08-17T19:21:46.315Z,92.40
2022-08-17T19:24:24.526Z,92.40
2022-08-17T19:27:14.010Z,92.50
2022-08-17T19:30:07.630Z,92.50
2022-08-17T19:32:36.011Z,92.60
2022-08-17T19:35:08.069Z,92.70
2022-08-17T19:37:50.032Z,92.70
2022-08-17T19:40:54.694Z,93.00
2022-08-17T19:43:48.095Z,93.10
2022-08-17T19:46:30.158Z,93.40
2022-08-17T19:49:14.622Z,93.70
2022-08-17T19:51:58.111Z,93.60
2022-08-17T19:58:43.267Z,93.80
2022-08-17T20:02:03.279Z,93.50
2022-08-17T20:06:10.979Z,93.10
2022-08-17T20:14:07.870Z,92.90
2022-08-17T20:16:36.019Z,93.00
2022-08-17T20:34:33.416Z,93.40
2022-08-17T20:37:22.867Z,93.50
2022-08-17T20:39:49.610Z,93.60
2022-08-17T20:42:22.377Z,93.80
2022-08-17T20:44:52.854Z,93.90
2022-08-17T20:47:55.344Z,94.00
2022-08-17T20:50:32.997Z,94.10
2022-08-17T20:53:02.390Z,94.20
2022-08-17T20:55:39.345Z,94.30
2022-08-17T20:58:36.627Z,94.30
2022-08-17T21:01:13.151Z,94.40
2022-08-17T21:03:50.460Z,94.30
2022-08-17T21:06:21.361Z,94.40
2022-08-17T21:08:57.652Z,94.50
2022-08-17T21:12:03.155Z,94.60
2022-08-17T21:14:58.065Z,94.70
2022-08-17T21:17:48.333Z,94.70
2022-08-17T21:20:34.597Z,94.70
2022-08-17T21:23:27.886Z,94.80
2022-08-17T21:26:20.483Z,94.90
2022-08-17T21:29:30.246Z,94.90
2022-08-17T21:31:59.557Z,95.10
2022-08-17T21:34:29.538Z,95.10
2022-08-17T21:37:23.484Z,95.20
2022-08-17T21:40:01.107Z,95.40
2022-08-17T21:42:34.582Z,95.40
2022-08-17T21:45:27.401Z,95.40
2022-08-17T21:48:09.372Z,95.20
2022-08-17T21:50:36.905Z,95.30
2022-08-17T21:53:05.319Z,95.30
2022-08-17T21:55:34.163Z,94.90
2022-08-17T21:58:14.586Z,94.70
2022-08-17T22:00:44.445Z,95.20
2022-08-17T22:03:30.280Z,95.60
2022-08-17T22:05:57.044Z,95.40
2022-08-17T22:08:25.262Z,94.50
2022-08-17T22:11:00.754Z,94.60
2022-08-17T22:13:30.633Z,94.20
2022-08-17T22:16:28.629Z,94.50
2022-08-17T22:18:57.889Z,95.00
2022-08-17T22:21:25.344Z,95.60
2022-08-17T22:24:15.429Z,95.60
2022-08-17T22:27:03.455Z,95.80
2022-08-17T22:29:53.341Z,95.70
2022-08-17T22:32:38.158Z,96.10
2022-08-17T22:35:29.210Z,96.20
2022-08-17T22:37:56.937Z,96.00
2022-08-17T22:40:26.335Z,96.40
2022-08-17T22:42:53.706Z,96.40
2022-08-17T22:45:20.577Z,96.40
2022-08-17T22:47:48.884Z,96.40
2022-08-17T22:50:35.914Z,96.60
2022-08-17T22:53:37.006Z,96.70
2022-08-17T22:56:23.312Z,97.20
2022-08-17T22:59:17.093Z,97.20
2022-08-17T23:01:46.071Z,97.70
2022-08-17T23:04:35.782Z,97.70
2022-08-17T23:07:02.568Z,97.70
2022-08-17T23:09:29.840Z,98.00
2022-08-17T23:11:58.513Z,97.80
2022-08-17T23:14:31.575Z,98.00
2022-08-17T23:17:01.971Z,98.20
2022-08-17T23:19:31.656Z,98.40
2022-08-17T23:21:59.583Z,98.80
2022-08-17T23:24:29.713Z,99.00
2022-08-17T23:26:58.955Z,99.00
2022-08-17T23:29:29.241Z,99.20
2022-08-17T23:31:59.625Z,99.30
2022-08-17T23:34:27.992Z,99.20
2022-08-17T23:36:55.625Z,99.30
2022-08-17T23:39:27.370Z,99.30
2022-08-17T23:41:58.196Z,99.60
2022-08-17T23:44:25.724Z,99.60
2022-08-17T23:46:53.211Z,99.50
2022-08-17T23:49:20.229Z,99.70
2022-08-17T23:51:48.592Z,99.80
2022-08-17T23:54:31.378Z,99.70
2022-08-17T23:56:58.154Z,99.70
2022-08-17T23:59:26.876Z,99.90
